sensor_id;sensor_type;location;lat;lon;timestamp;pressure;altitude;pressure_sealevel;temperature;humidity
8398;BME280;4236;54.504;9.588;2022-11-21T00:01:00;100537.25;;;-1.32;100.00
8398;BME280;4236;54.504;9.588;2022-11-21T00:03:28;100535.47;;;-1.32;100.00
8398;BME280;4236;54.504;9.588;2022-11-21T00:05:57;100526.78;;;-1.32;100.00
8398;BME280;4236;54.504;9.588;2022-11-21T00:08:25;100527.88;;;-1.35;100.00
8398;BME280;4236;54.504;9.588;2022-11-21T00:10:52;100530.34;;;-1.33;100.00
8398;BME280;4236;54.504;9.588;2022-11-21T00:13:20;100520.03;;;-1.35;100.00
8398;BME280;4236;54.504;9.588;2022-11-21T00:15:48;100526.06;;;-1.34;100.00
8398;BME280;4236;54.504;9.588;2022-11-21T00:18:15;100522.75;;;-1.36;100.00
8398;BME280;4236;54.504;9.588;2022-11-21T00:20:43;100509.66;;;-1.36;100.00
8398;BME280;4236;54.504;9.588;2022-11-21T00:23:12;100516.56;;;-1.35;100.00
8398;BME280;4236;54.504;9.588;2022-11-21T00:25:39;100512.19;;;-1.35;100.00
8398;BME280;4236;54.504;9.588;2022-11-21T00:28:07;100513.13;;;-1.36;100.00
8398;BME280;4236;54.504;9.588;2022-11-21T00:30:35;100515.59;;;-1.34;100.00
8398;BME280;4236;54.504;9.588;2022-11-21T00:33:02;100514.66;;;-1.33;100.00
8398;BME280;4236;54.504;9.588;2022-11-21T00:35:30;100511.09;;;-1.32;100.00
8398;BME280;4236;54.504;9.588;2022-11-21T00:37:58;100506.56;;;-1.30;100.00
8398;BME280;4236;54.504;9.588;2022-11-21T00:40:27;100497.03;;;-1.31;100.00
8398;BME280;4236;54.504;9.588;2022-11-21T00:42:54;100500.13;;;-1.26;100.00
8398;BME280;4236;54.504;9.588;2022-11-21T00:45:22;100500.81;;;-1.24;100.00
8398;BME280;4236;54.504;9.588;2022-11-21T00:47:50;100496.28;;;-1.22;100.00
8398;BME280;4236;54.504;9.588;2022-11-21T00:50:17;100493.66;;;-1.22;100.00
8398;BME280;4236;54.504;9.588;2022-11-21T00:52:45;100495.31;;;-1.21;100.00
8398;BME280;4236;54.504;9.588;2022-11-21T00:55:12;100492.59;;;-1.20;100.00
8398;BME280;4236;54.504;9.588;2022-11-21T00:57:41;100489.84;;;-1.18;100.00
8398;BME280;4236;54.504;9.588;2022-11-21T01:00:10;100488.91;;;-1.17;100.00
8398;BME280;4236;54.504;9.588;2022-11-21T01:02:38;100485.31;;;-1.16;100.00
8398;BME280;4236;54.504;9.588;2022-11-21T01:05:06;100498.38;;;-1.16;100.00
8398;BME280;4236;54.504;9.588;2022-11-21T01:07:34;100490.41;;;-1.15;100.00
8398;BME280;4236;54.504;9.588;2022-11-21T01:10:02;100484.34;;;-1.15;100.00
8398;BME280;4236;54.504;9.588;2022-11-21T01:12:30;100489.47;;;-1.14;100.00
8398;BME280;4236;54.504;9.588;2022-11-21T01:14:59;100477.19;;;-1.13;100.00
8398;BME280;4236;54.504;9.588;2022-11-21T01:17:27;100471.84;;;-1.12;100.00
8398;BME280;4236;54.504;9.588;2022-11-21T01:19:54;100464.84;;;-1.11;100.00
8398;BME280;4236;54.504;9.588;2022-11-21T01:22:22;100471.72;;;-1.10;100.00
8398;BME280;4236;54.504;9.588;2022-11-21T01:24:50;100461.13;;;-1.08;100.00
8398;BME280;4236;54.504;9.588;2022-11-21T01:27:17;100456.84;;;-1.09;100.00
8398;BME280;4236;54.504;9.588;2022-11-21T01:29:45;100457.53;;;-1.07;100.00
8398;BME280;4236;54.504;9.588;2022-11-21T01:32:14;100450.41;;;-1.05;100.00
8398;BME280;4236;54.504;9.588;2022-11-21T01:34:41;100447.78;;;-1.05;100.00
8398;BME280;4236;54.504;9.588;2022-11-21T01:37:09;100438.94;;;-1.04;100.00
8398;BME280;4236;54.504;9.588;2022-11-21T01:39:36;100440.78;;;-1.05;100.00
8398;BME280;4236;54.504;9.588;2022-11-21T01:42:04;100452.88;;;-1.04;100.00
8398;BME280;4236;54.504;9.588;2022-11-21T01:44:46;100446.81;;;-1.04;100.00
8398;BME280;4236;54.504;9.588;2022-11-21T01:47:16;100447.78;;;-1.05;100.00
8398;BME280;4236;54.504;9.588;2022-11-21T01:49:44;100447.91;;;-1.07;100.00
8398;BME280;4236;54.504;9.588;2022-11-21T01:52:15;100447.22;;;-1.09;100.00
8398;BME280;4236;54.504;9.588;2022-11-21T01:54:48;100450.78;;;-1.10;100.00
8398;BME280;4236;54.504;9.588;2022-11-21T01:57:21;100447.59;;;-1.14;100.00
8398;BME280;4236;54.504;9.588;2022-11-21T01:59:56;100447.72;;;-1.15;100.00
8398;BME280;4236;54.504;9.588;2022-11-21T02:02:29;100439.19;;;-1.17;100.00
8398;BME280;4236;54.504;9.588;2022-11-21T02:05:00;100434.91;;;-1.18;100.00
8398;BME280;4236;54.504;9.588;2022-11-21T02:07:29;100429.91;;;-1.21;100.00
8398;BME280;4236;54.504;9.588;2022-11-21T02:10:00;100428.41;;;-1.24;100.00
8398;BME280;4236;54.504;9.588;2022-11-21T02:12:32;100422.34;;;-1.24;100.00
8398;BME280;4236;54.504;9.588;2022-11-21T02:15:02;100419.97;;;-1.27;100.00
8398;BME280;4236;54.504;9.588;2022-11-21T02:17:31;100425.22;;;-1.27;100.00
8398;BME280;4236;54.504;9.588;2022-11-21T02:20:01;100421.75;;;-1.28;100.00
8398;BME280;4236;54.504;9.588;2022-11-21T02:22:35;100421.75;;;-1.28;100.00
8398;BME280;4236;54.504;9.588;2022-11-21T02:25:11;100421.06;;;-1.30;100.00
8398;BME280;4236;54.504;9.588;2022-11-21T02:27:39;100421.19;;;-1.31;100.00
8398;BME280;4236;54.504;9.588;2022-11-21T02:30:08;100417.75;;;-1.32;100.00
8398;BME280;4236;54.504;9.588;2022-11-21T02:32:38;100417.75;;;-1.32;100.00
8398;BME280;4236;54.504;9.588;2022-11-21T02:35:06;100419.41;;;-1.31;100.00
8398;BME280;4236;54.504;9.588;2022-11-21T02:37:35;100412.38;;;-1.30;100.00
8398;BME280;4236;54.504;9.588;2022-11-21T02:40:07;100411.44;;;-1.29;100.00
8398;BME280;4236;54.504;9.588;2022-11-21T02:42:42;100415.00;;;-1.30;100.00
8398;BME280;4236;54.504;9.588;2022-11-21T02:45:20;100418.44;;;-1.30;100.00
8398;BME280;4236;54.504;9.588;2022-11-21T02:47:53;100414.06;;;-1.29;100.00
8398;BME280;4236;54.504;9.588;2022-11-21T02:50:29;100415.69;;;-1.28;100.00
8398;BME280;4236;54.504;9.588;2022-11-21T02:52:57;100415.84;;;-1.30;100.00
8398;BME280;4236;54.504;9.588;2022-11-21T02:55:26;100410.47;;;-1.28;100.00
8398;BME280;4236;54.504;9.588;2022-11-21T02:57:55;100397.53;;;-1.30;100.00
8398;BME280;4236;54.504;9.588;2022-11-21T03:00:30;100400.81;;;-1.28;100.00
8398;BME280;4236;54.504;9.588;2022-11-21T03:02:57;100396.56;;;-1.29;100.00
8398;BME280;4236;54.504;9.588;2022-11-21T03:05:25;100395.75;;;-1.29;100.00
8398;BME280;4236;54.504;9.588;2022-11-21T03:07:53;100392.03;;;-1.27;100.00
8398;BME280;4236;54.504;9.588;2022-11-21T03:10:21;100397.94;;;-1.25;100.00
8398;BME280;4236;54.504;9.588;2022-11-21T03:12:49;100402.25;;;-1.24;100.00
8398;BME280;4236;54.504;9.588;2022-11-21T03:15:17;100401.28;;;-1.23;100.00
8398;BME280;4236;54.504;9.588;2022-11-21T03:17:47;100390.69;;;-1.21;100.00
8398;BME280;4236;54.504;9.588;2022-11-21T03:20:15;100390.56;;;-1.20;100.00
8398;BME280;4236;54.504;9.588;2022-11-21T03:22:42;100390.56;;;-1.20;100.00
8398;BME280;4236;54.504;9.588;2022-11-21T03:25:10;100391.38;;;-1.19;100.00
8398;BME280;4236;54.504;9.588;2022-11-21T03:27:37;100385.19;;;-1.18;100.00
8398;BME280;4236;54.504;9.588;2022-11-21T03:30:06;100386.03;;;-1.18;100.00
8398;BME280;4236;54.504;9.588;2022-11-21T03:32:36;100387.69;;;-1.17;100.00
8398;BME280;4236;54.504;9.588;2022-11-21T03:35:04;100394.56;;;-1.16;100.00
8398;BME280;4236;54.504;9.588;2022-11-21T03:37:32;100383.25;;;-1.16;100.00
8398;BME280;4236;54.504;9.588;2022-11-21T03:39:59;100390.16;;;-1.15;100.00
8398;BME280;4236;54.504;9.588;2022-11-21T03:42:27;100385.88;;;-1.16;100.00
8398;BME280;4236;54.504;9.588;2022-11-21T03:44:54;100383.25;;;-1.16;100.00
8398;BME280;4236;54.504;9.588;2022-11-21T03:47:22;100391.09;;;-1.16;100.00
8398;BME280;4236;54.504;9.588;2022-11-21T03:49:53;100382.31;;;-1.15;100.00
8398;BME280;4236;54.504;9.588;2022-11-21T03:52:21;100389.72;;;-1.20;100.00
8398;BME280;4236;54.504;9.588;2022-11-21T03:54:49;100395.78;;;-1.20;100.00
8398;BME280;4236;54.504;9.588;2022-11-21T03:57:16;100391.50;;;-1.21;100.00
8398;BME280;4236;54.504;9.588;2022-11-21T03:59:44;100394.81;;;-1.19;100.00
8398;BME280;4236;54.504;9.588;2022-11-21T04:02:11;100390.41;;;-1.18;100.00
8398;BME280;4236;54.504;9.588;2022-11-21T04:04:39;100386.03;;;-1.18;100.00
8398;BME280;4236;54.504;9.588;2022-11-21T04:07:08;100383.25;;;-1.16;100.00
8398;BME280;4236;54.504;9.588;2022-11-21T04:09:36;100387.53;;;-1.15;100.00
8398;BME280;4236;54.504;9.588;2022-11-21T04:12:04;100395.41;;;-1.15;100.00
8398;BME280;4236;54.504;9.588;2022-11-21T04:14:33;100399.69;;;-1.14;100.00
8398;BME280;4236;54.504;9.588;2022-11-21T04:17:01;100401.31;;;-1.13;100.00
8398;BME280;4236;54.504;9.588;2022-11-21T04:19:29;100395.13;;;-1.12;100.00
8398;BME280;4236;54.504;9.588;2022-11-21T04:21:56;100398.44;;;-1.10;100.00
8398;BME280;4236;54.504;9.588;2022-11-21T04:24:25;100397.75;;;-1.12;100.00
8398;BME280;4236;54.504;9.588;2022-11-21T04:26:53;100389.63;;;-1.09;100.00
8398;BME280;4236;54.504;9.588;2022-11-21T04:29:21;100388.69;;;-1.08;100.00
8398;BME280;4236;54.504;9.588;2022-11-21T04:31:48;100387.72;;;-1.07;100.00
8398;BME280;4236;54.504;9.588;2022-11-21T04:34:16;100383.19;;;-1.05;100.00
8398;BME280;4236;54.504;9.588;2022-11-21T04:36:44;100372.59;;;-1.03;100.00
8398;BME280;4236;54.504;9.588;2022-11-21T04:39:11;100378.66;;;-1.03;100.00
8398;BME280;4236;54.504;9.588;2022-11-21T04:41:40;100377.56;;;-1.00;100.00
8398;BME280;4236;54.504;9.588;2022-11-21T04:44:08;100373.28;;;-1.01;100.00
8398;BME280;4236;54.504;9.588;2022-11-21T04:46:35;100366.81;;;-0.97;100.00
8398;BME280;4236;54.504;9.588;2022-11-21T04:49:03;100368.34;;;-0.95;100.00
8398;BME280;4236;54.504;9.588;2022-11-21T04:51:30;100357.75;;;-0.93;100.00
8398;BME280;4236;54.504;9.588;2022-11-21T04:53:58;100358.31;;;-0.90;100.00
8398;BME280;4236;54.504;9.588;2022-11-21T04:56:26;100358.06;;;-0.87;100.00
8398;BME280;4236;54.504;9.588;2022-11-21T04:58:54;100356.97;;;-0.84;100.00
8398;BME280;4236;54.504;9.588;2022-11-21T05:01:22;100350.63;;;-0.82;100.00
8398;BME280;4236;54.504;9.588;2022-11-21T05:03:51;100355.44;;;-0.77;100.00
8398;BME280;4236;54.504;9.588;2022-11-21T05:06:19;100356.00;;;-0.74;100.00
8398;BME280;4236;54.504;9.588;2022-11-21T05:08:46;100355.75;;;-0.71;100.00
8398;BME280;4236;54.504;9.588;2022-11-21T05:11:19;100356.44;;;-0.69;100.00
8398;BME280;4236;54.504;9.588;2022-11-21T05:14:05;100351.47;;;-0.72;100.00
8398;BME280;4236;54.504;9.588;2022-11-21T05:16:33;100347.63;;;-0.68;100.00
8398;BME280;4236;54.504;9.588;2022-11-21T05:19:01;100350.13;;;-0.66;100.00
8398;BME280;4236;54.504;9.588;2022-11-21T05:21:29;100346.66;;;-0.67;100.00
8398;BME280;4236;54.504;9.588;2022-11-21T05:23:56;100345.84;;;-0.67;100.00
8398;BME280;4236;54.504;9.588;2022-11-21T05:26:24;100351.06;;;-0.67;100.00
8398;BME280;4236;54.504;9.588;2022-11-21T05:28:51;100358.38;;;-0.71;100.00
8398;BME280;4236;54.504;9.588;2022-11-21T05:31:20;100348.31;;;-0.75;100.00
8398;BME280;4236;54.504;9.588;2022-11-21T05:33:48;100337.69;;;-0.74;100.00
8398;BME280;4236;54.504;9.588;2022-11-21T05:36:16;100335.91;;;-0.73;100.00
8398;BME280;4236;54.504;9.588;2022-11-21T05:38:43;100332.44;;;-0.74;100.00
8398;BME280;4236;54.504;9.588;2022-11-21T05:41:11;100336.72;;;-0.73;100.00
8398;BME280;4236;54.504;9.588;2022-11-21T05:43:40;100329.00;;;-0.74;100.00
8398;BME280;4236;54.504;9.588;2022-11-21T05:46:14;100336.06;;;-0.75;100.00
8398;BME280;4236;54.504;9.588;2022-11-21T05:48:43;100333.56;;;-0.76;100.00
8398;BME280;4236;54.504;9.588;2022-11-21T05:51:11;100331.88;;;-0.77;100.00
8398;BME280;4236;54.504;9.588;2022-11-21T05:53:39;100328.31;;;-0.76;100.00
8398;BME280;4236;54.504;9.588;2022-11-21T05:56:08;100323.06;;;-0.76;100.00
8398;BME280;4236;54.504;9.588;2022-11-21T05:58:36;100326.38;;;-0.74;100.00
8398;BME280;4236;54.504;9.588;2022-11-21T06:01:05;100322.81;;;-0.73;100.00
8398;BME280;4236;54.504;9.588;2022-11-21T06:03:34;100318.41;;;-0.73;100.00
8398;BME280;4236;54.504;9.588;2022-11-21T06:06:04;100311.22;;;-0.71;100.00
8398;BME280;4236;54.504;9.588;2022-11-21T06:08:34;100310.41;;;-0.71;100.00
8398;BME280;4236;54.504;9.588;2022-11-21T06:11:03;100311.81;;;-0.67;100.00
8398;BME280;4236;54.504;9.588;2022-11-21T06:13:30;100315.09;;;-0.65;100.00
8398;BME280;4236;54.504;9.588;2022-11-21T06:16:01;100309.84;;;-0.65;100.00
8398;BME280;4236;54.504;9.588;2022-11-21T06:18:30;100305.47;;;-0.65;100.00
8398;BME280;4236;54.504;9.588;2022-11-21T06:21:05;100294.88;;;-0.63;100.00
8398;BME280;4236;54.504;9.588;2022-11-21T06:23:33;100305.06;;;-0.60;100.00
8398;BME280;4236;54.504;9.588;2022-11-21T06:26:02;100294.44;;;-0.59;100.00
8398;BME280;4236;54.504;9.588;2022-11-21T06:28:32;100293.59;;;-0.59;100.00
8398;BME280;4236;54.504;9.588;2022-11-21T06:31:03;100300.50;;;-0.58;100.00
8398;BME280;4236;54.504;9.588;2022-11-21T06:33:30;100297.75;;;-0.57;100.00
8398;BME280;4236;54.504;9.588;2022-11-21T06:36:00;100294.03;;;-0.54;100.00
8398;BME280;4236;54.504;9.588;2022-11-21T06:38:29;100293.78;;;-0.51;100.00
8398;BME280;4236;54.504;9.588;2022-11-21T06:40:57;100287.28;;;-0.47;100.00
8398;BME280;4236;54.504;9.588;2022-11-21T06:43:25;100296.81;;;-0.46;100.00
8398;BME280;4236;54.504;9.588;2022-11-21T06:45:54;100303.56;;;-0.43;100.00
8398;BME280;4236;54.504;9.588;2022-11-21T06:48:22;100297.38;;;-0.42;100.00
8398;BME280;4236;54.504;9.588;2022-11-21T06:50:49;100294.75;;;-0.42;100.00
8398;BME280;4236;54.504;9.588;2022-11-21T06:53:17;100285.78;;;-0.40;100.00
8398;BME280;4236;54.504;9.588;2022-11-21T06:55:46;100293.75;;;-0.41;100.00
8398;BME280;4236;54.504;9.588;2022-11-21T06:58:13;100287.56;;;-0.40;100.00
8398;BME280;4236;54.504;9.588;2022-11-21T07:00:41;100288.41;;;-0.40;100.00
8398;BME280;4236;54.504;9.588;2022-11-21T07:03:09;100281.38;;;-0.39;100.00
8398;BME280;4236;54.504;9.588;2022-11-21T07:05:37;100287.28;;;-0.37;100.00
8398;BME280;4236;54.504;9.588;2022-11-21T07:08:04;100281.09;;;-0.36;100.00
8398;BME280;4236;54.504;9.588;2022-11-21T07:10:39;100283.72;;;-0.36;100.00
8398;BME280;4236;54.504;9.588;2022-11-21T07:13:28;100285.34;;;-0.35;100.00
8398;BME280;4236;54.504;9.588;2022-11-21T07:16:01;100274.59;;;-0.32;100.00
8398;BME280;4236;54.504;9.588;2022-11-21T07:18:29;100278.72;;;-0.30;100.00
8398;BME280;4236;54.504;9.588;2022-11-21T07:20:57;100278.59;;;-0.28;100.00
8398;BME280;4236;54.504;9.588;2022-11-21T07:23:25;100279.44;;;-0.28;100.00
8398;BME280;4236;54.504;9.588;2022-11-21T07:25:53;100270.31;;;-0.24;100.00
8398;BME280;4236;54.504;9.588;2022-11-21T07:28:21;100269.91;;;-0.19;100.00
8398;BME280;4236;54.504;9.588;2022-11-21T07:30:50;100280.25;;;-0.18;100.00
8398;BME280;4236;54.504;9.588;2022-11-21T07:33:17;100273.91;;;-0.15;100.00
8398;BME280;4236;54.504;9.588;2022-11-21T07:35:45;100276.09;;;-0.11;100.00
8398;BME280;4236;54.504;9.588;2022-11-21T07:38:12;100268.91;;;-0.09;100.00
8398;BME280;4236;54.504;9.588;2022-11-21T07:40:40;100267.69;;;-0.05;100.00
8398;BME280;4236;54.504;9.588;2022-11-21T07:43:09;100259.53;;;-0.02;100.00
8398;BME280;4236;54.504;9.588;2022-11-21T07:45:37;100261.72;;;0.03;100.00
8398;BME280;4236;54.504;9.588;2022-11-21T07:48:06;100270.13;;;0.07;100.00
8398;BME280;4236;54.504;9.588;2022-11-21T07:50:34;100267.94;;;0.12;100.00
8398;BME280;4236;54.504;9.588;2022-11-21T07:53:03;100263.94;;;0.17;100.00
8398;BME280;4236;54.504;9.588;2022-11-21T07:55:32;100261.97;;;0.19;100.00
8398;BME280;4236;54.504;9.588;2022-11-21T07:58:07;100268.59;;;0.23;100.00
8398;BME280;4236;54.504;9.588;2022-11-21T08:00:37;100266.38;;;0.28;100.00
8398;BME280;4236;54.504;9.588;2022-11-21T08:03:06;100267.03;;;0.30;100.00
8398;BME280;4236;54.504;9.588;2022-11-21T08:05:35;100274.50;;;0.35;100.00
8398;BME280;4236;54.504;9.588;2022-11-21T08:08:03;100273.09;;;0.40;100.00
8398;BME280;4236;54.504;9.588;2022-11-21T08:10:31;100260.66;;;0.42;100.00
8398;BME280;4236;54.504;9.588;2022-11-21T08:12:59;100266.31;;;0.47;100.00
8398;BME280;4236;54.504;9.588;2022-11-21T08:15:26;100257.19;;;0.51;100.00
8398;BME280;4236;54.504;9.588;2022-11-21T08:17:54;100264.75;;;0.54;100.00
8398;BME280;4236;54.504;9.588;2022-11-21T08:20:23;100261.84;;;0.57;100.00
8398;BME280;4236;54.504;9.588;2022-11-21T08:22:50;100257.00;;;0.63;100.00
8398;BME280;4236;54.504;9.588;2022-11-21T08:25:18;100252.81;;;0.70;100.00
8398;BME280;4236;54.504;9.588;2022-11-21T08:27:46;100262.19;;;0.72;100.00
8398;BME280;4236;54.504;9.588;2022-11-21T08:30:13;100250.56;;;0.75;100.00
8398;BME280;4236;54.504;9.588;2022-11-21T08:32:41;100245.88;;;0.78;100.00
8398;BME280;4236;54.504;9.588;2022-11-21T08:35:08;100252.50;;;0.82;100.00
8398;BME280;4236;54.504;9.588;2022-11-21T08:37:38;100251.22;;;0.86;100.00
8398;BME280;4236;54.504;9.588;2022-11-21T08:40:06;100252.56;;;0.90;100.00
8398;BME280;4236;54.504;9.588;2022-11-21T08:42:34;100251.63;;;0.91;100.00
8398;BME280;4236;54.504;9.588;2022-11-21T08:45:03;100250.50;;;0.94;100.00
8398;BME280;4236;54.504;9.588;2022-11-21T08:47:31;100249.06;;;0.99;100.00
8398;BME280;4236;54.504;9.588;2022-11-21T08:49:59;100246.00;;;1.04;100.00
8398;BME280;4236;54.504;9.588;2022-11-21T08:52:34;100249.97;;;1.08;100.00
8398;BME280;4236;54.504;9.588;2022-11-21T08:55:03;100250.38;;;1.13;100.00
8398;BME280;4236;54.504;9.588;2022-11-21T08:57:36;100252.72;;;1.16;100.00
8398;BME280;4236;54.504;9.588;2022-11-21T09:00:05;100249.78;;;1.19;100.00
8398;BME280;4236;54.504;9.588;2022-11-21T09:02:33;100258.34;;;1.21;100.00
8398;BME280;4236;54.504;9.588;2022-11-21T09:05:01;100254.44;;;1.25;100.00
8398;BME280;4236;54.504;9.588;2022-11-21T09:07:28;100255.66;;;1.31;100.00
8398;BME280;4236;54.504;9.588;2022-11-21T09:09:56;100257.81;;;1.35;100.00
8398;BME280;4236;54.504;9.588;2022-11-21T09:12:25;100256.84;;;1.36;100.00
8398;BME280;4236;54.504;9.588;2022-11-21T09:14:52;100257.53;;;1.38;100.00
8398;BME280;4236;54.504;9.588;2022-11-21T09:17:38;100252.66;;;1.43;100.00
8398;BME280;4236;54.504;9.588;2022-11-21T09:20:23;100259.91;;;1.49;100.00
8398;BME280;4236;54.504;9.588;2022-11-21T09:22:51;100262.25;;;1.52;100.00
8398;BME280;4236;54.504;9.588;2022-11-21T09:25:19;100256.84;;;1.54;100.00
8398;BME280;4236;54.504;9.588;2022-11-21T09:27:48;100265.56;;;1.54;100.00
8398;BME280;4236;54.504;9.588;2022-11-21T09:30:15;100270.97;;;1.53;100.00
8398;BME280;4236;54.504;9.588;2022-11-21T09:32:43;100267.00;;;1.49;100.00
8398;BME280;4236;54.504;9.588;2022-11-21T09:35:11;100270.97;;;1.53;100.00
8398;BME280;4236;54.504;9.588;2022-11-21T09:37:38;100267.97;;;1.48;100.00
8398;BME280;4236;54.504;9.588;2022-11-21T09:40:11;100270.28;;;1.51;100.00
8398;BME280;4236;54.504;9.588;2022-11-21T09:43:02;100271.97;;;1.52;100.00
8398;BME280;4236;54.504;9.588;2022-11-21T09:45:33;100270.00;;;1.54;100.00
8398;BME280;4236;54.504;9.588;2022-11-21T09:48:09;100268.56;;;1.59;100.00
8398;BME280;4236;54.504;9.588;2022-11-21T09:50:40;100272.09;;;1.68;100.00
8398;BME280;4236;54.504;9.588;2022-11-21T09:53:11;100267.06;;;1.75;100.00
8398;BME280;4236;54.504;9.588;2022-11-21T09:55:43;100265.97;;;1.85;100.00
8398;BME280;4236;54.504;9.588;2022-11-21T09:58:20;100258.47;;;1.90;100.00
8398;BME280;4236;54.504;9.588;2022-11-21T10:00:50;100254.41;;;1.96;100.00
8398;BME280;4236;54.504;9.588;2022-11-21T10:03:20;100257.09;;;2.04;100.00
8398;BME280;4236;54.504;9.588;2022-11-21T10:05:52;100256.47;;;2.10;100.00
8398;BME280;4236;54.504;9.588;2022-11-21T10:08:27;100256.56;;;2.18;100.00
8398;BME280;4236;54.504;9.588;2022-11-21T10:10:59;100257.91;;;2.30;100.00
8398;BME280;4236;54.504;9.588;2022-11-21T10:13:53;100255.69;;;2.43;100.00
8398;BME280;4236;54.504;9.588;2022-11-21T10:16:31;100256.78;;;2.58;100.00
8398;BME280;4236;54.504;9.588;2022-11-21T10:19:37;100259.31;;;2.76;100.00
8398;BME280;4236;54.504;9.588;2022-11-21T10:22:29;100256.25;;;2.89;100.00
8398;BME280;4236;54.504;9.588;2022-11-21T10:25:04;100255.94;;;2.92;100.00
8398;BME280;4236;54.504;9.588;2022-11-21T10:27:42;100253.63;;;2.89;100.00
8398;BME280;4236;54.504;9.588;2022-11-21T10:30:17;100241.28;;;2.89;100.00
8398;BME280;4236;54.504;9.588;2022-11-21T10:32:47;100241.41;;;2.88;100.00
8398;BME280;4236;54.504;9.588;2022-11-21T10:35:20;100246.38;;;2.91;100.00
8398;BME280;4236;54.504;9.588;2022-11-21T10:37:51;100245.06;;;2.87;100.00
8398;BME280;4236;54.504;9.588;2022-11-21T10:40:31;100243.41;;;2.86;100.00
8398;BME280;4236;54.504;9.588;2022-11-21T10:43:03;100249.50;;;2.86;100.00
8398;BME280;4236;54.504;9.588;2022-11-21T10:45:48;100244.38;;;2.85;100.00
8398;BME280;4236;54.504;9.588;2022-11-21T10:48:16;100234.53;;;2.87;100.00
8398;BME280;4236;54.504;9.588;2022-11-21T10:50:53;100229.91;;;2.89;100.00
8398;BME280;4236;54.504;9.588;2022-11-21T10:53:29;100230.56;;;2.91;100.00
8398;BME280;4236;54.504;9.588;2022-11-21T10:56:17;100232.38;;;2.90;100.00
8398;BME280;4236;54.504;9.588;2022-11-21T10:58:47;100228.94;;;2.90;100.00
8398;BME280;4236;54.504;9.588;2022-11-21T11:01:21;100222.66;;;2.91;100.00
8398;BME280;4236;54.504;9.588;2022-11-21T11:04:14;100223.19;;;2.94;100.00
8398;BME280;4236;54.504;9.588;2022-11-21T11:07:19;100219.25;;;2.98;100.00
8398;BME280;4236;54.504;9.588;2022-11-21T11:09:47;100212.00;;;3.00;100.00
8398;BME280;4236;54.504;9.588;2022-11-21T11:12:36;100216.63;;;2.98;100.00
8398;BME280;4236;54.504;9.588;2022-11-21T11:15:23;100216.44;;;2.92;100.00
8398;BME280;4236;54.504;9.588;2022-11-21T11:17:55;100210.00;;;2.94;100.00
8398;BME280;4236;54.504;9.588;2022-11-21T11:20:33;100205.25;;;2.90;100.00
8398;BME280;4236;54.504;9.588;2022-11-21T11:23:15;100205.25;;;2.90;100.00
8398;BME280;4236;54.504;9.588;2022-11-21T11:25:47;100200.63;;;2.92;100.00
8398;BME280;4236;54.504;9.588;2022-11-21T11:28:15;100198.66;;;2.94;100.00
8398;BME280;4236;54.504;9.588;2022-11-21T11:30:45;100194.06;;;3.04;100.00
8398;BME280;4236;54.504;9.588;2022-11-21T11:33:35;100194.56;;;3.07;100.00
8398;BME280;4236;54.504;9.588;2022-11-21T11:36:12;100194.59;;;3.23;100.00
8398;BME280;4236;54.504;9.588;2022-11-21T11:38:47;100195.41;;;3.32;100.00
8398;BME280;4236;54.504;9.588;2022-11-21T11:41:38;100180.75;;;3.38;100.00
8398;BME280;4236;54.504;9.588;2022-11-21T11:44:29;100183.25;;;3.39;100.00
8398;BME280;4236;54.504;9.588;2022-11-21T11:47:19;100175.34;;;3.55;100.00
8398;BME280;4236;54.504;9.588;2022-11-21T11:50:00;100175.34;;;3.55;100.00
8398;BME280;4236;54.504;9.588;2022-11-21T11:52:44;100180.47;;;3.49;100.00
8398;BME280;4236;54.504;9.588;2022-11-21T11:55:18;100175.66;;;3.44;100.00
8398;BME280;4236;54.504;9.588;2022-11-21T11:57:48;100163.50;;;3.43;100.00
8398;BME280;4236;54.504;9.588;2022-11-21T12:00:27;100173.22;;;3.43;100.00
8398;BME280;4236;54.504;9.588;2022-11-21T12:03:00;100170.53;;;3.34;100.00
8398;BME280;4236;54.504;9.588;2022-11-21T12:05:33;100178.63;;;3.33;100.00
8398;BME280;4236;54.504;9.588;2022-11-21T12:08:07;100169.41;;;3.29;100.00
8398;BME280;4236;54.504;9.588;2022-11-21T12:11:01;100162.00;;;3.16;100.00
8398;BME280;4236;54.504;9.588;2022-11-21T12:13:53;100166.25;;;3.17;100.00
8398;BME280;4236;54.504;9.588;2022-11-21T12:16:23;100157.84;;;3.14;100.00
8398;BME280;4236;54.504;9.588;2022-11-21T12:18:55;100159.19;;;3.18;100.00
8398;BME280;4236;54.504;9.588;2022-11-21T12:21:28;100151.47;;;3.16;100.00
8398;BME280;4236;54.504;9.588;2022-11-21T12:23:57;100160.00;;;3.18;100.00
8398;BME280;4236;54.504;9.588;2022-11-21T12:26:33;100151.59;;;3.15;100.00
8398;BME280;4236;54.504;9.588;2022-11-21T12:29:24;100145.00;;;3.11;100.00
8398;BME280;4236;54.504;9.588;2022-11-21T12:32:08;100147.16;;;3.07;100.00
8398;BME280;4236;54.504;9.588;2022-11-21T12:34:56;100147.63;;;3.03;100.00
8398;BME280;4236;54.504;9.588;2022-11-21T12:37:34;100143.69;;;3.07;100.00
8398;BME280;4236;54.504;9.588;2022-11-21T12:40:11;100151.44;;;3.08;100.00
8398;BME280;4236;54.504;9.588;2022-11-21T12:42:58;100146.00;;;3.10;100.00
8398;BME280;4236;54.504;9.588;2022-11-21T12:45:31;100141.38;;;3.04;100.00
8398;BME280;4236;54.504;9.588;2022-11-21T12:48:24;100129.53;;;3.08;100.00
8398;BME280;4236;54.504;9.588;2022-11-21T12:51:47;100131.34;;;3.07;100.00
8398;BME280;4236;54.504;9.588;2022-11-21T12:58:06;100116.69;;;3.21;100.00
8398;BME280;4236;54.504;9.588;2022-11-21T13:00:42;100116.69;;;3.21;100.00
8398;BME280;4236;54.504;9.588;2022-11-21T13:03:27;100106.31;;;3.27;100.00
8398;BME280;4236;54.504;9.588;2022-11-21T13:05:59;100114.06;;;3.29;100.00
8398;BME280;4236;54.504;9.588;2022-11-21T13:08:30;100120.00;;;3.31;100.00
8398;BME280;4236;54.504;9.588;2022-11-21T13:11:06;100119.00;;;3.40;100.00
8398;BME280;4236;54.504;9.588;2022-11-21T13:14:00;100114.22;;;3.44;100.00
8398;BME280;4236;54.504;9.588;2022-11-21T13:16:31;100113.22;;;3.45;100.00
8398;BME280;4236;54.504;9.588;2022-11-21T13:19:13;100115.88;;;3.45;100.00
8398;BME280;4236;54.504;9.588;2022-11-21T13:21:44;100119.66;;;3.42;100.00
8398;BME280;4236;54.504;9.588;2022-11-21T13:24:53;100110.75;;;3.35;100.00
8398;BME280;4236;54.504;9.588;2022-11-21T13:27:27;100113.72;;;3.32;100.00
8398;BME280;4236;54.504;9.588;2022-11-21T13:30:23;100109.47;;;3.31;100.00
8398;BME280;4236;54.504;9.588;2022-11-21T13:32:52;100099.75;;;3.31;100.00